sim
Sign-in with your pilot id or email,
or register
Callsign
Passwort

Schedule Details

Flight Number: UAE505
Departure: Mumbai Chhatrapati Shivaji International Airport (VABB) at 04:55
Arrival: Dubai International Airport (OMDB) at 08:10
Route: Emirates Passenger Schedule. Enter filed route here before submitting Pirep.

Weather Information
Getting current METAR information for VABB 092230Z 00000KT 4000 HZ NSC 26/21 Q1012 BECMG 3000 HZ
Getting current METAR information for OMDB 092200Z 08004KT 020V110 CAVOK 23/19 Q1016 NOSIG

Schedule Frequency

Route Map